NWS Home NWS Lubbock West Texas Mesonet                      Daily Summary For 10/22/2020

Latest   N   C   S   Daily Sum   3hrΔ   24hrΔ   Soil Data 
Site Map   24hr Precip   72hr Precip   Google Plot


Station Time of Last Max Temp Min Temp Max/Min Dew Pt. Max/Min RH 10m Avg Wind 2m Avg Wind Peak Gust @ 33ft (mph) Potential Evapotranspiration
mm/day or in/day
Rain Sum Solar Rad
MJ/m^2
% Clear Day Red Flag
Abernathy 5ENE 11:59 PM 53 50 41 /40 23 / 22 14.5  (S) 10.4 66.9 mph 224° @ 0729 PM 4.1 or 0.16 0.00 16.9 124.3 0
Adrian 6WSW 11:59 PM 53 50 41 /40 23 / 22 21.3  (S) 16.6 39 mph 26° @ 1139 PM 5.6 or 0.22 0.00 18.7 143.7 176
Aiken 3WSW 11:59 PM 53 50 41 /40 23 / 22 16.2  (S) 13 30 mph 203° @ 0156 PM 4.6 or 0.18 0.00 17.3 128.6 0
Amarillo 15NNW 11:59 PM 53 50 41 /40 23 / 22 22.5  (S) 14.8 43.5 mph 19° @ 0921 PM 6.4 or 0.25 0.00 17.5 136.5 176
Amarillo 7SSE 11:59 PM 53 50 41 /40 23 / 22 17.6  (S) 12.4 40.2 mph 7° @ 1051 PM 5.1 or 0.2 0.00 16 122.8 33
Amarillo 9NNE 11:59 PM 53 50 41 /40 23 / 22 21.5  (S) 14.8 38.7 mph 181° @ 0100 AM 5.6 or 0.22 0.00 17.4 135.2 31
Amherst 1NE 11:55 PM 53 50 41 /40 23 / 22 11.1  (S) 7.5 38.2 mph 359° @ 1150 PM 4.3 or 0.17 0.00 16.7 123.3 0
Andrews 2E 11:55 PM 53 50 41 /40 23 / 22 10.6  (SE) 6.6 24.3 mph 178° @ 1125 AM 3.8 or 0.15 0.00 3.6 127.3 0
Anton 6SSW 11:55 PM 53 50 41 /40 23 / 22 13  (S) 9.6 27.5 mph 200° @ 0530 PM 4.3 or 0.17 0.00 16.7 122.5 0
Aspermont 3NE 11:55 PM 53 50 41 /40 23 / 22 10.5  (SE) 6.9 32.2 mph 176° @ 1140 AM 3 or 0.12 0.02 15.6 113.5 0
Big Bend NP - Castolon 11:59 PM 53 50 41 /40 23 / 22 7.1  (SE) 5.4 27.7 mph 127° @ 0133 AM 4.3 or 0.17 0.00 19.6 125.3 0
Big Bend NP - Persimmon Gap 11:59 PM 53 50 41 /40 23 / 22 7.5  (E) 6 19.2 mph 165° @ 0103 PM 4.1 or 0.16 0.00 19 122.7 0
Big Lake 1WNW 11:59 PM 53 50 41 /40 23 / 22 14.5  (S) 11.6 33 mph 161° @ 0943 AM 3.8 or 0.15 0.00 16.4 111 0
Bootleg 11WNW 11:59 PM 53 50 41 /40 23 / 22 18.1  (S) 13.1 42.9 mph 230° @ 0525 PM 5.1 or 0.2 0.00 15.6 118.1 190
Borger 7E 11:59 PM 53 50 41 /40 23 / 22 22.2  (S) 16.5 40.6 mph 359° @ 1118 PM 6.1 or 0.24 0.00 18.3 143.8 53
Boys Ranch 1WSW 11:59 PM 53 50 41 /40 23 / 22 17.5  (S) 13 40.7 mph 24° @ 0838 PM 5.6 or 0.22 0.00 17.1 133.6 75
Brownfield 2S 11:59 PM 53 50 41 /40 23 / 22 12.1  (SE) 8.5 28.5 mph 187° @ 1035 AM 4.1 or 0.16 0.00 17.6 126.3 0
Canadian 6E 11:59 PM 53 50 41 /40 23 / 22 18  (S) 12.3 44.1 mph 8° @ 0926 PM 3.8 or 0.15 0.00 17.1 136.5 0
Caprock Canyons State Park 11:59 PM 53 50 41 /40 23 / 22 17.3  (S) 12.1 36.8 mph 353° @ 1154 PM 4.6 or 0.18 0.00 16.3 123 0
Childress 2NNE 11:55 PM 53 50 41 /40 23 / 22 16.6  (SE) 11.6 32 mph 174° @ 0520 PM 4.3 or 0.17 0.00 15.5 117.6 0
Clarendon 2WSW 11:55 PM 53 50 41 /40 23 / 22 16.1  (S) 10.4 41.2 mph 314° @ 1025 PM 4.3 or 0.17 0.00 16.9 130.1 0
Claude 12SW 11:59 PM 53 50 41 /40 23 / 22 13.8  (S) 9.7 40 mph 351° @ 1107 PM 4.1 or 0.16 0.00 17.1 130.6 0
Clyde 2WNW 11:59 PM 53 50 41 /40 23 / 22 14.3  (S) 11 34 mph 189° @ 1156 AM 4.1 or 0.16 0.00 17.6 124.7 0
Colorado City 5NW 11:59 PM 53 50 41 /40 23 / 22 12.6  (SE) 8.3 27.9 mph 179° @ 1147 AM 3.8 or 0.15 0.00 15.9 112.3 0
Comanche Springs 11:59 PM 53 50 41 /40 23 / 22 11  (S) 8.2 35.1 mph 184° @ 1056 AM 3.3 or 0.13 0.00 15.5 116.5 0
Coyanosa 2N 11:59 PM 53 50 41 /40 23 / 22 10  (SE) 6.9 28.5 mph 148° @ 1228 AM 4.6 or 0.18 0.00 18.4 125.4 0
Crane 1NNW 11:59 PM 53 50 41 /40 23 / 22 17.7  (S) 14.9 32.8 mph 164° @ 0143 AM 5.1 or 0.2 0.00 18.9 128.8 0
Crowell 1E 11:59 PM 53 50 41 /40 23 / 22 16.7  (S) 12.7 41 mph 169° @ 0835 PM 4.3 or 0.17 0.06 15.7 117.5 0
Dell City 11:59 PM 53 50 41 /40 23 / 22 7.1  (NW) 4.6 25.4 mph 263° @ 0335 PM 3.3 or 0.13 0.00 18.5 127.7 0
Denver City 7WNW 11:55 PM 53 50 41 /40 23 / 22 10.2  (S) 6.4 23.1 mph 192° @ 0430 PM 3.8 or 0.15 0.00 18.9 134.6 0
Dimmitt 2NE 11:55 PM 53 50 41 /40 23 / 22 15.9  (S) 11.7 39.8 mph 2° @ 1030 PM 4.8 or 0.19 0.00 16.2 122.1 10
Doole 3WNW 11:59 PM 53 50 41 /40 23 / 22 10.6  (SE) 7.7 27.6 mph 199° @ 1039 AM 3.8 or 0.15 0.00 17.1 118 0
Dora NM 2SW 11:55 PM 53 50 41 /40 23 / 22 11.8  (S) 7.4 26.5 mph 244° @ 0355 PM 4.3 or 0.17 0.00 17 124.4 0
Dozier 3W 11:59 PM 53 50 41 /40 23 / 22 13.3  (SE) 7.8 41.8 mph 331° @ 1054 PM 3.3 or 0.13 0.00 16.4 127.3 0
Earth 9WSW 11:59 PM 53 50 41 /40 23 / 22 12.8  (S) 8.9 45.6 mph 3° @ 1110 PM 4.6 or 0.18 0.00 17.6 131 1
Endee NM 2SW 11:59 PM 53 50 41 /40 23 / 22 20.3  (S) 15.1 40.8 mph 26° @ 0924 PM 5.8 or 0.23 0.00 17.1 130.8 178
Estelline 3SSE 11:59 PM 53 50 41 /40 23 / 22 12  (SE) 8.2 28 mph 163° @ 0443 PM 4.1 or 0.16 0.00 16.3 123.8 0
Floydada 2NNE 11:55 PM 53 50 41 /40 23 / 22 16.8  (S) 11.6 30.8 mph 198° @ 1225 PM 4.3 or 0.17 0.00 15.8 117 0
Fluvanna 3WNW 11:55 PM 53 50 41 /40 23 / 22 16.7  (S) 11.4 32.4 mph 180° @ 1100 AM 4.3 or 0.17 0.00 14.8 106.2 0
Fort Chadbourne 11:59 PM 53 50 41 /40 23 / 22 8.6  (SE) 6.2 28.2 mph 172° @ 0116 PM 2.5 or 0.1 0.00 11 76.9 0
Fort Lancaster 11:59 PM 53 50 41 /40 23 / 22 13.4  (SE) 9.7 33 mph 148° @ 0246 AM 3.8 or 0.15 0.00 14.7 98.1 0
Fort Lewis CO 11:59 PM 53 50 41 /40 23 / 22 8  (NW) 5.8 32.3 mph 293° @ 0254 PM 2 or 0.08 0.00 17.9 144.8 0
Fort McKavett 11:59 PM 53 50 41 /40 23 / 22 8.3  (SE) 4.7 24.6 mph 186° @ 1256 PM 3.3 or 0.13 0.00 16.6 111.7 0
Friona 2NE 11:55 PM 53 50 41 /40 23 / 22 15.7  (S) 11.5 40.6 mph 21° @ 1040 PM 4.8 or 0.19 0.00 17.6 132.6 30
Fritch 1WNW 11:59 PM 53 50 41 /40 23 / 22 20.2  (S) 16.7 40.3 mph 10° @ 1044 PM 5.6 or 0.22 0.00 17.6 138.5 102
Gail 2ESE 11:55 PM 53 50 41 /40 23 / 22 11.2  (SE) 5.5 28.7 mph 186° @ 1240 PM 3.8 or 0.15 0.00 3.1 112.2 0
Goodlett 3W 11:55 PM 53 50 41 /40 23 / 22 16.5  (S) 12.4 35.7 mph 168° @ 0515 PM 4.1 or 0.16 0.00 15.7 119.5 0
Goodnight 11:59 PM 53 50 41 /40 23 / 22 18.8  (S) 13 40.4 mph 359° @ 1127 PM 4.8 or 0.19 0.00 16.8 129.4 0
Graham 5SSW 11:55 PM 53 50 41 /40 23 / 22 14  (S) 10.7 35.3 mph 184° @ 1250 PM 4.1 or 0.16 0.00 3 109.6 0
Guadalupe Mtns Natl Park 11:59 PM 53 50 41 /40 23 / 22 11.3  (NW) 8.6 43.2 mph 220° @ 0453 PM 4.1 or 0.16 0.00 17 115.4 0
Guthrie 10WSW 11:55 PM 53 50 41 /40 23 / 22 14.7  (SE) 10.2 35.6 mph 192° @ 1150 AM 4.3 or 0.17 0.00 3 111.9 0
Hackberry 2SSE 11:59 PM 53 50 41 /40 23 / 22 16.5  (S) 13.2 37.5 mph 192° @ 1058 AM 4.3 or 0.17 0.00 17.1 127.6 0
Happy 1E 11:59 PM 53 50 41 /40 23 / 22 18.3  (S) 13.5 42.5 mph 7° @ 1004 PM 5.3 or 0.21 0.00 16.8 127.4 19
Hart 3N 11:55 PM 53 50 41 /40 23 / 22 12.4  (S) 8.1 37 mph 7° @ 1125 PM 4.3 or 0.17 0.00 16.5 123.4 0
Haskell 1NW 11:55 PM 53 50 41 /40 23 / 22 12.1  (SE) 8.7 34.5 mph 191° @ 1120 AM 3.8 or 0.15 0.05 15.7 114.3 0
Hefner 1SW 11:59 PM 53 50 41 /40 23 / 22 16  (SE) 11.8 36.7 mph 182° @ 1030 AM 4.3 or 0.17 0.10 16.6 122.6 0
Hereford 2NW 11:55 PM 53 50 41 /40 23 / 22 14.9  (S) 11.6 38.9 mph 11° @ 1015 PM 4.6 or 0.18 0.00 16.4 124.3 35
Hobbs NM 5NW 11:59 PM 53 50 41 /40 23 / 22 10.2  (S) 8 23.1 mph 208° @ 0340 PM 4.1 or 0.16 0.00 18.5 130.6 0
Jayton 1SSE 11:55 PM 53 50 41 /40 23 / 22 11.1  (S) 7.8 29.6 mph 170° @ 0400 PM 3.6 or 0.14 0.06 15.5 112.5 0
Junction 1SSW 11:59 PM 53 50 41 /40 23 / 22 6.6  (S) 4.8 21.8 mph 166° @ 1022 AM 2.8 or 0.11 0.00 14.3 95.4 0
Kent 9E 11:59 PM 53 50 41 /40 23 / 22 9.7  (N) 6.6 27.3 mph 230° @ 1134 AM 4.1 or 0.16 0.00 18.9 126.5 0
Knox City 3NW 11:59 PM 53 50 41 /40 23 / 22 14  (SE) 9.7 36.2 mph 191° @ 1053 AM 4.1 or 0.16 0.07 16.4 120.9 0
Lake Alan Henry 1NW 11:59 PM 53 50 41 /40 23 / 22 11.4  (S) 7.6 28.9 mph 197° @ 1011 AM 3.8 or 0.15 0.00 15.5 112 0
Lake McClellan 2NW 11:59 PM 53 50 41 /40 23 / 22 18.4  (S) 14 41.1 mph 348° @ 1032 PM 4.6 or 0.18 0.00 17.1 132.6 0
Lamesa 2SE 11:55 PM 53 50 41 /40 23 / 22 11.8  (SE) 6.7 30.7 mph 179° @ 1040 AM 4.1 or 0.16 0.00 17 120.6 0
Lesley 2S 11:59 PM 53 50 41 /40 23 / 22 12  (E) 8 36.8 mph 347° @ 1148 PM 4.1 or 0.16 0.00 17.2 131.6 0
Levelland 4S 11:59 PM 53 50 41 /40 23 / 22 11.3  (S) 8.4 29.6 mph 198° @ 1200 PM 4.1 or 0.16 0.00 17.2 124.7 0
Lomax 1SSE 11:59 PM 53 50 41 /40 23 / 22 13.8  (SE) 10.4 39.5 mph 168° @ 1000 AM 4.3 or 0.17 0.00 17.6 122.7 0
Lubbock 3WNW TTU 11:55 PM 53 50 41 /40 23 / 22 12.6  (S) 7 33.5 mph 185° @ 1020 AM 4.3 or 0.17 0.00 16.8 122.5 0
McAdoo 3NNW 11:59 PM 53 50 41 /40 23 / 22 17.2  (S) 13.4 35.1 mph 191° @ 0949 AM 4.1 or 0.16 0.00 15.7 115.5 0
McCamey 1SSW 11:59 PM 53 50 41 /40 23 / 22 15.9  (SE) 13.9 33.8 mph 153° @ 0402 AM 4.3 or 0.17 0.00 16 108.3 0
McLean 1E 11:55 PM 53 50 41 /40 23 / 22 18.1  (S) 14.8 35.7 mph 348° @ 1150 PM 4.1 or 0.16 0.00 18.1 140.3 0
Memphis 1NE 11:55 PM 53 50 41 /40 23 / 22 9.5  (SE) 6.8 43.4 mph 336° @ 1135 PM 3.3 or 0.13 0.00 3.1 117.7 0
Menard 2NW 11:59 PM 53 50 41 /40 23 / 22 8.7  (SE) 6.3 25.7 mph 175° @ 0103 PM 3.3 or 0.13 0.00 15.5 104.7 0
Mertzon 3NNE 11:59 PM 53 50 41 /40 23 / 22 12.4  (S) 8.8 29.8 mph 166° @ 1107 AM 3.3 or 0.13 0.00 14.3 97.4 0
Morton 1ENE 11:55 PM 53 50 41 /40 23 / 22 10.1  (S) 6.8 26.8 mph 253° @ 0435 PM 4.3 or 0.17 0.00 17.2 125.8 0
Muleshoe 2SSW 11:55 PM 53 50 41 /40 23 / 22 12.2  (S) 8.7 31.6 mph 19° @ 1155 PM 4.3 or 0.17 0.00 17.9 133.1 0
New Home 11:59 PM 53 50 41 /40 23 / 22 13.2  (S) 9.3 31 mph 191° @ 1025 AM 4.1 or 0.16 0.00 16.3 118 0
Northfield 1S 11:55 PM 53 50 41 /40 23 / 22 14.2  (S) 9.5 29.8 mph 201° @ 0235 PM 4.6 or 0.18 0.00 15.2 114.6 0
O'Donnell 1N 11:55 PM 53 50 41 /40 23 / 22 12.9  (S) 9.4 29.9 mph 188° @ 1105 AM 4.1 or 0.16 0.00 14.7 105 0
Odell 4ENE 11:59 PM 53 50 41 /40 23 / 22 16.8  (SE) 13 34 mph 174° @ 0342 PM 4.3 or 0.17 0.00 14.6 111.1 0
Olton 6S 11:55 PM 53 50 41 /40 23 / 22 12.9  (S) 9.1 32.7 mph 3° @ 1155 PM 4.3 or 0.17 0.00 16.9 125.1 0
Paducah 10SW 11:55 PM 53 50 41 /40 23 / 22 16.3  (S) 10.5 37 mph 188° @ 1140 AM 4.3 or 0.17 0.00 13.4 99.7 0
Palo Duro 4E (JA Ranch) 11:59 PM 53 50 41 /40 23 / 22 12.6  (SE) 8.4 39.4 mph 351° @ 1101 PM 3.8 or 0.15 0.00 16.2 124 0
Palo Duro Canyon SP Floor 11:59 PM 53 50 41 /40 23 / 22 8.1  (SE) 4.2 38.7 mph 19° @ 0934 PM 3.3 or 0.13 0.00 15.1 116.3 0
Palo Duro Canyon State Park Rim 11:59 PM 53 50 41 /40 23 / 22 15.6  (S) 8.4 42.4 mph 7° @ 1150 PM 4.8 or 0.19 0.00 16.6 127.2 1
Palo Duro Reservoir 1NW 11:59 PM 53 50 41 /40 23 / 22 20.7  (S) 14.1 34.1 mph 229° @ 0341 PM 6.6 or 0.26 0.00 15.2 123.1 56
Pampa 2E 11:55 PM 53 50 41 /40 23 / 22 17.7  (S) 12.8 37.6 mph 347° @ 1055 PM 4.6 or 0.18 0.00 16.3 127.4 0
Panhandle 1SSW 11:59 PM 53 50 41 /40 23 / 22 18.9  (S) 14.7 39.2 mph 1° @ 1155 PM 5.1 or 0.2 0.00 17.6 136.4 18
Plains 3N 11:55 PM 53 50 41 /40 23 / 22 10.3  (S) 7.4 23.1 mph 204° @ 1135 AM 4.1 or 0.16 0.00 18.5 133 0
Plainview 1S 11:59 PM 53 50 41 /40 23 / 22 13.2  (S) 8.6 32.9 mph 211° @ 1101 AM 4.3 or 0.17 0.00 17.2 127.8 0
Post 1NE 11:55 PM 53 50 41 /40 23 / 22 11.5  (S) 7.4 26.7 mph 189° @ 0240 PM 4.1 or 0.16 0.00 3.1 113.8 0
Ralls 1SE 11:55 PM 53 50 41 /40 23 / 22 13.5  (S) 8.8 30.8 mph 191° @ 1130 AM 3.8 or 0.15 0.00 3 109.2 0
Reese Center 11:59 PM 53 50 41 /40 23 / 22 15  (S) 10.4 34 mph 206° @ 1125 AM 4.6 or 0.18 0.00 17 124.4 0
Roaring Springs 3N 11:55 PM 53 50 41 /40 23 / 22 15  (S) 11.2 35.1 mph 191° @ 1020 AM 3.8 or 0.15 0.00 2.8 104.3 0
Romero 11SSW 11:59 PM 53 50 41 /40 23 / 22 16.7  (S) 11.9 46.4 mph 17° @ 0927 PM 5.6 or 0.22 0.00 17.1 133.4 241
Rotan 5W 11:59 PM 53 50 41 /40 23 / 22 14.9  (SE) 9.7 37 mph 180° @ 1009 AM 3.8 or 0.15 0.00 15.9 114.2 0
San Angelo 7NW 11:55 PM 53 50 41 /40 23 / 22 9.9  (SE) 6.3 26.1 mph 164° @ 1115 AM 3 or 0.12 0.00 14.4 99.1 0
Seagraves 1SW 11:55 PM 53 50 41 /40 23 / 22 9.8  (SE) 6.2 23 mph 183° @ 1040 AM 3.6 or 0.14 0.00 15.9 113.2 0
Segovia 7SSW 11:59 PM 53 50 41 /40 23 / 22 9.3  (SE) 6.6 25 mph 171° @ 1054 AM 3.3 or 0.13 0.00 16.8 111.4 0
Seminole 2NNE 11:55 PM 53 50 41 /40 23 / 22 9.9  (SE) 5.9 25 mph 191° @ 0325 PM 3.8 or 0.15 0.00 18 127.9 0
Seymour 3NW 11:55 PM 53 50 41 /40 23 / 22 14.8  (SE) 11.8 38.9 mph 137° @ 1055 PM 4.1 or 0.16 0.07 14.7 109.1 0
Sierra Blanca 1SSE 11:59 PM 53 50 41 /40 23 / 22 7.5  (SW) 5.6 26.6 mph 278° @ 0310 PM 3.3 or 0.13 0.00 17.8 118.4 0
Silverton 7ESE 11:55 PM 53 50 41 /40 23 / 22 19.8  (S) 14.8 37.3 mph 225° @ 1035 AM 4.6 or 0.18 0.00 15.9 119.4 0
Slaton 2NE 11:59 PM 53 50 41 /40 23 / 22 14.4  (S) 10.6 31.8 mph 188° @ 1221 PM 4.3 or 0.17 0.00 16.1 117.1 0
Smyer 11:59 PM 53 50 41 /40 23 / 22 11.8  (S) 9.6 29.1 mph 209° @ 1052 AM 4.1 or 0.16 0.00 18.3 133.1 0
Snyder 3E 11:55 PM 53 50 41 /40 23 / 22 16  (S) 7.9 37.8 mph 183° @ 1035 AM 4.1 or 0.16 0.00 14.7 105 0
Snyder 3SSW 11:59 PM 53 50 41 /40 23 / 22 14.3  (S) 11.4 35.1 mph 179° @ 1056 AM 3.6 or 0.14 0.00 16 114.3 0
South Plains 3ENE 11:59 PM 53 50 41 /40 23 / 22 17.1  (S) 12 34.5 mph 209° @ 1043 AM 4.6 or 0.18 0.00 16.2 120.8 0
Spur 1W 11:55 PM 53 50 41 /40 23 / 22 9.2  (S) 6.6 30.5 mph 200° @ 1010 AM 3 or 0.12 0.00 14.8 108.4 0
St. Lawrence 5SW 11:55 PM 53 50 41 /40 23 / 22 17.6  (S) 12.7 31.5 mph 177° @ 1055 AM 4.8 or 0.19 0.00 3.4 118.2 0
Stamford 5ESE 11:59 PM 53 50 41 /40 23 / 22 14.4  (S) 11.4 34.8 mph 196° @ 1018 AM 4.3 or 0.17 0.00 16.4 118.3 0
Sterling City 4WSW 11:59 PM 53 50 41 /40 23 / 22 11.4  (SE) 8.6 30 mph 150° @ 1005 AM 3.3 or 0.13 0.01 12.7 88.1 0
Stinnett 1NNW 11:59 PM 53 50 41 /40 23 / 22 21.3  (S) 14.6 45.5 mph 9° @ 0923 PM 5.8 or 0.23 0.00 17.7 140 88
Stratford 4WNW 11:59 PM 53 50 41 /40 23 / 22 18.9  (S) 13.3 37.6 mph 14° @ 0941 PM 5.6 or 0.22 0.00 17.2 138.6 84
Sundown 8WSW 11:55 PM 53 50 41 /40 23 / 22 10.9  (S) 6.1 26.2 mph 195° @ 1020 AM 4.1 or 0.16 0.00 16.1 116.2 0
Sweetwater 11SW 11:59 PM 53 50 41 /40 23 / 22 17.4  (S) 13.5 33 mph 178° @ 1217 PM 3.8 or 0.15 0.00 17 119.7 0
Tahoka 3NNE 11:59 PM 53 50 41 /40 23 / 22 14.9  (S) 9.3 29.4 mph 186° @ 0156 PM 4.3 or 0.17 0.00 15.9 114.8 0
Tarzan 2WNW 11:59 PM 53 50 41 /40 23 / 22 12.7  (S) 8.2 26.1 mph 182° @ 0356 PM 4.3 or 0.17 0.00 17.4 121.8 0
Tatum NM 2SW 11:55 PM 53 50 41 /40 23 / 22 14  (S) 7 27.5 mph 227° @ 0515 PM 5.1 or 0.2 0.00 18.7 133.8 0
Throckmorton 1SW 11:59 PM 53 50 41 /40 23 / 22 10.1  (SE) 5 32.6 mph 183° @ 1039 AM 3.3 or 0.13 0.00 17.8 130.3 0
Truscott 2SE 11:59 PM 53 50 41 /40 23 / 22 16.7  (S) 11.7 44.3 mph 152° @ 0900 PM 4.3 or 0.17 0.23 16.2 120.3 0
Tulia 2ENE 11:55 PM 53 50 41 /40 23 / 22 15.7  (S) 10.9 37 mph 358° @ 1115 PM 4.3 or 0.17 0.00 14.1 106.2 0
Turkey 2WSW 11:55 PM 53 50 41 /40 23 / 22 15.7  (S) 11.8 59.5 mph 314° @ 1140 PM 4.3 or 0.17 0.00 13.7 103.8 0
Umbarger 3NNE 11:59 PM 53 50 41 /40 23 / 22 18.3  (S) 12.2 40.6 mph 16° @ 1153 PM 5.3 or 0.21 0.00 15.8 120.7 43
Van Horn 3ENE 11:59 PM 53 50 41 /40 23 / 22 9.7  (S) 6.4 25 mph 188° @ 1225 AM 4.3 or 0.17 0.00 20.1 134.3 0
Vega 4E 11:59 PM 53 50 41 /40 23 / 22 18.9  (S) 14.7 42.7 mph 13° @ 1141 PM 5.3 or 0.21 0.00 18.7 143.6 172
Vigo Park 11:59 PM 53 50 41 /40 23 / 22 16.6  (S) 11.5 39.5 mph 339° @ 1042 PM 4.1 or 0.16 0.00 15.1 114.5 0
Wall 2E 11:59 PM 53 50 41 /40 23 / 22 11.6  (SE) 8.2 27.2 mph 178° @ 1139 AM 3.6 or 0.14 0.00 16.1 110.6 0
Weinert 2NNE 11:59 PM 53 50 41 /40 23 / 22 13.1  (SE) 9.4 33.8 mph 192° @ 1131 AM 3.8 or 0.15 0.07 15.2 111.6 0
Welch 11:59 PM 53 50 41 /40 23 / 22 11.4  (SE) 8.3 25.5 mph 184° @ 1234 PM 3.8 or 0.15 0.00 17.1 122.2 0
White River Lake 6NW 11:59 PM 53 50 41 /40 23 / 22 12.1  (S) 8.5 32.9 mph 177° @ 1231 PM 3.8 or 0.15 0.00 15.2 110.8 0
Wolfforth 6SSW 11:59 PM 53 50 41 /40 23 / 22 11.6  (S) 8.6 28.5 mph 198° @ 0330 PM 4.1 or 0.16 0.00 4.7 171.1 0

WestTexas Mesonet Home    Site Map/Menu  National Weather Service Lubbock   Soil Data   Latest Observation Page   Previous  Date